Terminal Aerodrome Forecast
Issued by NWS Central Illinois

Home | Current Version | Previous Version | Text Only | Print | Product List | Glossary On
Versions: 1 2 3 4 5 6 7 8 9 10 11 12 13 14 15 16
000
FTUS43 KILX 231700
TAFPIA
TAF
KPIA 231720Z 2318/2418 05012G18KT P6SM SCT035
     FM232300 05007KT P6SM FEW045
     FM240100 06004KT P6SM SKC
     FM241500 06006KT P6SM FEW040=

USA.gov is the U.S. government's official web portal to all federal, state and local government web resources and services.